createdAt,value
2023-02-05T00:02:07.232Z,3.54
2023-02-05T00:04:55.784Z,3.37
2023-02-05T00:07:44.275Z,3.16
2023-02-05T00:10:32.734Z,3.02
2023-02-05T00:13:21.224Z,2.67
2023-02-05T00:16:10.471Z,2.87
2023-02-05T00:19:00.313Z,2.84
2023-02-05T00:21:50.023Z,2.76
2023-02-05T00:24:38.628Z,2.62
2023-02-05T00:27:27.204Z,2.70
2023-02-05T00:30:15.691Z,2.79
2023-02-05T00:33:04.186Z,2.85
2023-02-05T00:35:54.061Z,2.72
2023-02-05T00:38:43.484Z,2.74
2023-02-05T00:41:31.965Z,2.72
2023-02-05T00:44:20.461Z,2.63
2023-02-05T00:47:09.214Z,2.65
2023-02-05T00:49:57.694Z,2.65
2023-02-05T00:52:47.454Z,2.60
2023-02-05T00:55:36.034Z,2.55
2023-02-05T00:58:24.637Z,2.55
2023-02-05T01:01:14.287Z,2.55
2023-02-05T01:04:03.066Z,2.16
2023-02-05T01:06:51.577Z,2.58
2023-02-05T01:09:41.442Z,2.52
2023-02-05T01:12:30.086Z,2.55
2023-02-05T01:15:18.950Z,2.57
2023-02-05T01:18:07.425Z,2.59
2023-02-05T01:20:57.422Z,2.61
2023-02-05T01:23:45.897Z,2.51
2023-02-05T01:26:35.677Z,2.48
2023-02-05T01:29:24.209Z,2.53
2023-02-05T01:32:12.640Z,2.66
2023-02-05T01:35:01.155Z,2.64
2023-02-05T01:37:49.618Z,2.54
2023-02-05T01:40:38.086Z,2.57
2023-02-05T01:43:28.301Z,2.28
2023-02-05T01:46:28.957Z,2.58
2023-02-05T01:49:20.937Z,2.61
2023-02-05T01:52:12.863Z,2.61
2023-02-05T01:55:02.291Z,2.59
2023-02-05T01:57:51.457Z,2.57
2023-02-05T02:00:41.292Z,2.47
2023-02-05T02:03:31.700Z,2.52
2023-02-05T02:06:20.131Z,2.45
2023-02-05T02:09:09.016Z,1.87
2023-02-05T02:11:58.100Z,2.45
2023-02-05T02:14:50.753Z,2.50
2023-02-05T02:17:42.355Z,2.52
2023-02-05T02:20:34.801Z,2.46
2023-02-05T02:23:28.905Z,2.39
2023-02-05T02:26:30.104Z,2.32
2023-02-05T02:29:24.666Z,2.27
2023-02-05T02:32:18.010Z,2.36
2023-02-05T02:35:08.985Z,2.35
2023-02-05T02:38:02.383Z,2.22
2023-02-05T02:40:52.725Z,2.33
2023-02-05T02:43:47.586Z,2.36
2023-02-05T02:46:41.790Z,2.24
2023-02-05T02:49:33.049Z,2.37
2023-02-05T02:52:22.952Z,2.39
2023-02-05T02:55:13.877Z,2.28
2023-02-05T02:58:03.209Z,2.20
2023-02-05T03:00:52.784Z,2.14
2023-02-05T03:03:46.134Z,2.05
2023-02-05T03:06:34.933Z,2.02
2023-02-05T03:09:27.627Z,2.05
2023-02-05T03:12:16.298Z,2.04
2023-02-05T03:15:05.496Z,1.99
2023-02-05T03:17:54.640Z,1.96
2023-02-05T03:20:47.655Z,2.04
2023-02-05T03:23:36.176Z,2.13
2023-02-05T03:26:26.646Z,2.26
2023-02-05T03:29:17.262Z,2.24
2023-02-05T03:32:16.068Z,2.27
2023-02-05T03:35:17.566Z,2.29
2023-02-05T03:38:30.876Z,2.17
2023-02-05T03:41:22.282Z,2.01
2023-02-05T03:44:15.788Z,2.33
2023-02-05T03:47:07.098Z,2.29
2023-02-05T03:50:02.306Z,2.42
2023-02-05T03:52:53.200Z,2.48
2023-02-05T03:55:46.838Z,2.53
2023-02-05T03:58:37.640Z,2.51
2023-02-05T04:01:26.639Z,2.47
2023-02-05T04:04:15.435Z,2.21
2023-02-05T04:07:04.321Z,2.54
2023-02-05T04:09:52.783Z,2.53
2023-02-05T04:12:42.635Z,2.54
2023-02-05T04:15:31.140Z,2.53
2023-02-05T04:18:20.113Z,2.52
2023-02-05T04:21:08.617Z,2.49
2023-02-05T04:23:57.122Z,2.56
2023-02-05T04:26:45.656Z,2.60
2023-02-05T04:29:35.455Z,2.52
2023-02-05T04:32:23.878Z,2.61
2023-02-05T04:35:12.331Z,2.57
2023-02-05T04:38:00.865Z,2.66
2023-02-05T04:40:49.411Z,2.65
2023-02-05T04:43:37.869Z,2.63
2023-02-05T04:46:27.767Z,2.56
2023-02-05T04:49:16.201Z,2.56
2023-02-05T04:52:04.899Z,2.64
2023-02-05T04:54:53.363Z,2.64
2023-02-05T04:57:42.039Z,2.70
2023-02-05T05:00:30.524Z,2.74
2023-02-05T05:03:20.333Z,2.75
2023-02-05T05:06:09.290Z,2.82
2023-02-05T05:08:57.852Z,2.84
2023-02-05T05:11:46.263Z,2.84
2023-02-05T05:14:34.855Z,2.91
2023-02-05T05:17:23.341Z,2.85
2023-02-05T05:20:13.378Z,2.84
2023-02-05T05:23:01.907Z,2.82
2023-02-05T05:25:50.609Z,2.70
2023-02-05T05:28:39.494Z,2.83
2023-02-05T05:31:28.008Z,2.80
2023-02-05T05:34:16.700Z,2.81
2023-02-05T05:37:06.568Z,2.79
2023-02-05T05:40:12.724Z,2.82
2023-02-05T05:43:18.811Z,2.85
2023-02-05T05:46:08.183Z,2.94
2023-02-05T05:48:58.584Z,2.91
2023-02-05T05:51:47.025Z,3.03
2023-02-05T05:54:36.916Z,3.05
2023-02-05T05:57:25.912Z,3.07
2023-02-05T06:00:15.785Z,3.16
2023-02-05T06:03:04.930Z,3.09
2023-02-05T06:05:53.655Z,3.10
2023-02-05T06:08:42.151Z,3.13
2023-02-05T06:11:31.983Z,3.03
2023-02-05T06:14:20.448Z,2.98
2023-02-05T06:17:08.967Z,2.97
2023-02-05T06:19:57.476Z,3.01
2023-02-05T06:22:46.149Z,3.07
2023-02-05T06:25:34.804Z,3.09
2023-02-05T06:28:24.974Z,3.09
2023-02-05T06:31:13.562Z,3.12
2023-02-05T06:34:02.234Z,3.12
2023-02-05T06:36:50.666Z,3.09
2023-02-05T06:39:39.123Z,3.05
2023-02-05T06:42:28.418Z,3.06
2023-02-05T06:45:18.301Z,3.13
2023-02-05T06:48:06.927Z,2.87
2023-02-05T06:50:55.349Z,3.11
2023-02-05T06:53:43.866Z,3.12
2023-02-05T06:56:32.361Z,3.24
2023-02-05T06:59:20.943Z,3.33
2023-02-05T07:02:14.406Z,3.29
2023-02-05T07:05:03.100Z,3.28
2023-02-05T07:07:51.578Z,3.32
2023-02-05T07:10:40.062Z,3.35
2023-02-05T07:13:29.684Z,3.48
2023-02-05T07:16:18.232Z,3.47
2023-02-05T07:19:08.126Z,3.52
2023-02-05T07:21:56.590Z,3.59
2023-02-05T07:24:45.469Z,3.79
2023-02-05T07:27:33.877Z,4.00
2023-02-05T07:30:22.415Z,4.04
2023-02-05T07:33:10.867Z,4.13
2023-02-05T07:36:03.403Z,4.20
2023-02-05T07:38:51.848Z,4.16
2023-02-05T07:41:40.304Z,4.22
2023-02-05T07:44:28.855Z,4.08
2023-02-05T07:47:17.334Z,3.81
2023-02-05T07:50:07.055Z,3.61
2023-02-05T07:52:57.086Z,3.55
2023-02-05T07:55:45.797Z,3.63
2023-02-05T07:58:34.291Z,3.75
2023-02-05T08:01:22.860Z,3.75
2023-02-05T08:04:11.357Z,3.68
2023-02-05T08:06:59.855Z,3.60
2023-02-05T08:09:49.927Z,3.70
2023-02-05T08:12:38.433Z,3.80
2023-02-05T08:15:28.155Z,3.09
2023-02-05T08:18:16.696Z,3.81
2023-02-05T08:21:05.598Z,3.86
2023-02-05T08:23:54.136Z,3.93
2023-02-05T08:26:44.173Z,4.01
2023-02-05T08:29:33.110Z,4.02
2023-02-05T08:32:21.578Z,4.04
2023-02-05T08:35:10.058Z,4.10
2023-02-05T08:37:58.820Z,4.12
2023-02-05T08:40:47.269Z,4.19
2023-02-05T08:43:37.109Z,4.31
2023-02-05T08:46:29.578Z,4.28
2023-02-05T08:49:20.259Z,4.41
2023-02-05T08:52:08.775Z,4.38
2023-02-05T08:54:57.316Z,4.37
2023-02-05T08:57:46.156Z,3.55
2023-02-05T09:00:37.964Z,4.47
2023-02-05T09:03:26.649Z,4.50
2023-02-05T09:06:17.158Z,4.11
2023-02-05T09:09:05.722Z,4.53
2023-02-05T09:11:54.238Z,4.55
2023-02-05T09:14:42.789Z,4.58
2023-02-05T09:17:32.664Z,4.64
2023-02-05T09:20:21.196Z,4.70
2023-02-05T09:23:10.954Z,4.75
2023-02-05T09:25:59.904Z,4.57
2023-02-05T09:28:48.508Z,4.94
2023-02-05T09:31:37.508Z,5.01
2023-02-05T09:34:27.421Z,5.00
2023-02-05T09:37:16.220Z,5.03
2023-02-05T09:40:21.646Z,5.08
2023-02-05T09:43:27.401Z,4.97
2023-02-05T09:46:22.044Z,5.03
2023-02-05T09:49:16.573Z,5.06
2023-02-05T09:52:13.225Z,5.03
2023-02-05T09:55:04.917Z,5.14
2023-02-05T09:57:56.319Z,4.93
2023-02-05T10:00:47.726Z,5.15
2023-02-05T10:03:44.367Z,5.11
2023-02-05T10:06:46.453Z,5.08
2023-02-05T10:10:04.403Z,5.13
2023-02-05T10:13:26.130Z,5.09
2023-02-05T10:16:35.423Z,5.11
2023-02-05T10:19:39.190Z,5.15
2023-02-05T10:22:28.687Z,5.30
2023-02-05T10:25:45.418Z,5.07
2023-02-05T10:28:50.562Z,5.26
2023-02-05T10:31:43.241Z,5.33
2023-02-05T10:34:46.462Z,5.30
2023-02-05T10:37:40.390Z,4.66
2023-02-05T10:40:32.963Z,5.28
2023-02-05T10:43:25.017Z,5.40
2023-02-05T10:46:14.928Z,5.42
2023-02-05T10:49:08.066Z,4.62
2023-02-05T10:51:56.542Z,5.35
2023-02-05T10:54:45.960Z,5.37
2023-02-05T10:57:36.705Z,5.36
2023-02-05T11:00:27.627Z,5.36
2023-02-05T11:03:18.498Z,5.30
2023-02-05T11:06:10.420Z,5.05
2023-02-05T11:08:59.038Z,5.39
2023-02-05T11:11:52.242Z,5.35
2023-02-05T11:14:45.680Z,5.38
2023-02-05T11:17:36.550Z,5.36
2023-02-05T11:20:35.819Z,5.34
2023-02-05T11:23:25.876Z,5.30
2023-02-05T11:26:19.986Z,5.36
2023-02-05T11:29:20.178Z,5.36
2023-02-05T11:32:21.037Z,5.35
2023-02-05T11:35:21.137Z,5.28
2023-02-05T11:38:22.107Z,5.30
2023-02-05T11:41:11.491Z,5.01
2023-02-05T11:44:01.227Z,5.28
2023-02-05T11:46:49.847Z,5.21
2023-02-05T11:49:41.961Z,5.27
2023-02-05T11:52:32.572Z,5.22
2023-02-05T11:55:26.605Z,5.22
2023-02-05T11:58:31.561Z,5.16
2023-02-05T12:01:25.928Z,5.11
2023-02-05T12:04:19.290Z,4.37
2023-02-05T12:07:12.968Z,5.27
2023-02-05T12:10:01.418Z,5.27
2023-02-05T12:12:57.304Z,5.23
2023-02-05T12:15:54.481Z,5.23
2023-02-05T12:18:51.988Z,5.26
2023-02-05T12:21:49.246Z,5.33
2023-02-05T12:24:48.533Z,5.30
2023-02-05T12:27:48.851Z,5.28
2023-02-05T12:30:49.264Z,5.29
2023-02-05T12:33:54.374Z,5.32
2023-02-05T12:36:53.658Z,4.94
2023-02-05T12:39:47.354Z,5.42
2023-02-05T12:42:38.109Z,5.34
2023-02-05T12:45:36.569Z,5.38
2023-02-05T12:48:46.872Z,5.33
2023-02-05T12:51:47.421Z,5.33
2023-02-05T12:54:47.967Z,5.32
2023-02-05T12:57:41.826Z,5.33
2023-02-05T13:00:34.910Z,5.31
2023-02-05T13:03:28.394Z,5.20
2023-02-05T13:06:18.868Z,5.37
2023-02-05T13:09:13.263Z,5.38
2023-02-05T13:12:06.222Z,5.04
2023-02-05T13:14:59.756Z,5.42
2023-02-05T13:17:56.342Z,5.44
2023-02-05T13:21:04.348Z,5.50
2023-02-05T13:24:11.946Z,5.51
2023-02-05T13:27:18.250Z,5.56
2023-02-05T13:30:12.689Z,5.58
2023-02-05T13:33:04.224Z,5.62
2023-02-05T13:35:59.006Z,5.68
2023-02-05T13:38:58.804Z,5.60
2023-02-05T13:42:06.189Z,5.48
2023-02-05T13:45:15.019Z,5.56
2023-02-05T13:48:14.440Z,4.92
2023-02-05T13:51:34.490Z,5.51
2023-02-05T13:54:47.735Z,5.52
2023-02-05T13:58:05.908Z,5.43
2023-02-05T14:00:59.866Z,5.55
2023-02-05T14:03:58.680Z,5.56
2023-02-05T14:06:56.227Z,5.53
2023-02-05T14:09:52.616Z,5.56
2023-02-05T14:12:41.199Z,5.42
2023-02-05T14:15:41.475Z,5.59
2023-02-05T14:18:51.269Z,5.54
2023-02-05T14:22:03.025Z,5.60
2023-02-05T14:24:51.565Z,4.97
2023-02-05T14:27:51.086Z,5.62
2023-02-05T14:30:51.474Z,4.84
2023-02-05T14:33:40.987Z,5.65
2023-02-05T14:36:36.432Z,5.65
2023-02-05T14:39:30.270Z,5.67
2023-02-05T14:42:21.446Z,5.71
2023-02-05T14:45:15.175Z,5.76
2023-02-05T14:48:03.738Z,5.65
2023-02-05T14:51:04.624Z,5.41
2023-02-05T14:53:59.385Z,5.69
2023-02-05T14:56:49.745Z,5.74
2023-02-05T14:59:43.651Z,5.75
2023-02-05T15:02:54.978Z,5.74
2023-02-05T15:05:50.215Z,5.72
2023-02-05T15:08:45.480Z,5.73
2023-02-05T15:11:48.772Z,5.86
2023-02-05T15:14:44.358Z,5.87
2023-02-05T15:17:53.925Z,5.82
2023-02-05T15:20:47.589Z,5.76
2023-02-05T15:23:37.237Z,5.73
2023-02-05T15:26:30.483Z,5.74
2023-02-05T15:29:23.429Z,5.73
2023-02-05T15:32:19.024Z,5.26
2023-02-05T15:35:11.938Z,5.76
2023-02-05T15:38:04.148Z,5.79
2023-02-05T15:40:53.087Z,5.78
2023-02-05T15:43:41.605Z,5.84
2023-02-05T15:46:32.706Z,5.29
2023-02-05T15:49:22.641Z,5.81
2023-02-05T15:52:17.549Z,5.37
2023-02-05T15:55:12.916Z,5.79
2023-02-05T15:58:06.372Z,5.76
2023-02-05T16:00:56.532Z,5.73
2023-02-05T16:03:46.391Z,5.75
2023-02-05T16:06:37.931Z,5.75
2023-02-05T16:09:28.339Z,5.36
2023-02-05T16:12:16.998Z,5.73
2023-02-05T16:15:07.630Z,5.72
2023-02-05T16:17:59.595Z,5.75
2023-02-05T16:20:52.256Z,5.85
2023-02-05T16:23:42.937Z,5.82
2023-02-05T16:26:34.529Z,5.81
2023-02-05T16:29:31.531Z,5.77
2023-02-05T16:32:27.500Z,5.76
2023-02-05T16:35:22.861Z,5.70
2023-02-05T16:38:16.500Z,5.72
2023-02-05T16:41:19.511Z,5.70
2023-02-05T16:44:11.202Z,5.48
2023-02-05T16:47:16.026Z,5.93
2023-02-05T16:50:35.055Z,5.91
2023-02-05T16:53:27.119Z,5.64
2023-02-05T16:56:22.512Z,5.74
2023-02-05T16:59:17.859Z,5.24
2023-02-05T17:02:08.679Z,5.56
2023-02-05T17:04:57.768Z,5.95
2023-02-05T17:07:55.065Z,5.95
2023-02-05T17:10:52.638Z,5.86
2023-02-05T17:13:42.911Z,5.82
2023-02-05T17:16:32.668Z,5.78
2023-02-05T17:19:26.582Z,5.69
2023-02-05T17:22:20.495Z,5.71
2023-02-05T17:25:08.983Z,5.74
2023-02-05T17:27:58.823Z,5.91
2023-02-05T17:30:48.770Z,5.82
2023-02-05T17:33:37.222Z,5.65
2023-02-05T17:36:25.991Z,5.77
2023-02-05T17:39:14.502Z,5.75
2023-02-05T17:42:07.737Z,5.74
2023-02-05T17:44:57.737Z,5.72
2023-02-05T17:47:46.462Z,5.62
2023-02-05T17:50:36.444Z,5.68
2023-02-05T17:53:25.119Z,5.71
2023-02-05T17:56:14.560Z,5.66
2023-02-05T17:59:03.055Z,5.61
2023-02-05T18:01:53.506Z,5.58
2023-02-05T18:04:43.486Z,5.57
2023-02-05T18:07:35.016Z,5.59
2023-02-05T18:10:25.312Z,5.60
2023-02-05T18:13:15.360Z,5.56
2023-02-05T18:16:04.359Z,5.59
2023-02-05T18:18:54.274Z,5.55
2023-02-05T18:21:42.729Z,5.56
2023-02-05T18:24:31.221Z,5.50
2023-02-05T18:27:19.997Z,5.41
2023-02-05T18:30:09.910Z,5.45
2023-02-05T18:32:58.382Z,5.47
2023-02-05T18:35:48.205Z,5.46
2023-02-05T18:38:37.180Z,5.49
2023-02-05T18:41:28.446Z,5.47
2023-02-05T18:44:16.913Z,5.36
2023-02-05T18:47:05.980Z,5.42
2023-02-05T18:49:55.118Z,5.49
2023-02-05T18:52:44.930Z,5.42
2023-02-05T18:55:35.599Z,5.39
2023-02-05T18:58:24.081Z,5.24
2023-02-05T19:01:14.255Z,5.25
2023-02-05T19:04:04.337Z,5.39
2023-02-05T19:06:53.630Z,5.36
2023-02-05T19:09:43.571Z,5.03
2023-02-05T19:12:32.182Z,5.28
2023-02-05T19:15:20.829Z,4.96
2023-02-05T19:18:09.393Z,5.20
2023-02-05T19:20:57.923Z,5.23
2023-02-05T19:23:47.606Z,5.23
2023-02-05T19:26:39.351Z,5.31
2023-02-05T19:29:28.436Z,5.32
2023-02-05T19:32:16.971Z,5.26
2023-02-05T19:35:05.750Z,5.28
2023-02-05T19:37:54.284Z,5.36
2023-02-05T19:40:42.778Z,5.22
2023-02-05T19:43:32.821Z,5.19
2023-02-05T19:46:23.172Z,5.18
2023-02-05T19:49:14.012Z,5.19
2023-02-05T19:52:02.595Z,5.17
2023-02-05T19:54:51.057Z,5.21
2023-02-05T19:57:43.291Z,5.20
2023-02-05T20:00:33.309Z,5.22
2023-02-05T20:03:22.018Z,5.20
2023-02-05T20:06:11.403Z,5.33
2023-02-05T20:09:01.178Z,5.12
2023-02-05T20:11:52.528Z,5.19
2023-02-05T20:14:41.023Z,5.18
2023-02-05T20:17:30.923Z,5.25
2023-02-05T20:20:44.900Z,5.31
2023-02-05T20:23:28.406Z,5.23
2023-02-05T20:26:18.952Z,5.22
2023-02-05T20:29:25.251Z,5.14
2023-02-05T20:32:13.766Z,5.16
2023-02-05T20:35:03.668Z,5.33
2023-02-05T20:37:52.150Z,5.32
2023-02-05T20:40:40.564Z,5.30
2023-02-05T20:43:29.075Z,5.27
2023-02-05T20:46:18.068Z,5.39
2023-02-05T20:49:06.659Z,5.30
2023-02-05T20:51:56.514Z,5.19
2023-02-05T20:54:45.052Z,5.13
2023-02-05T20:57:33.593Z,5.16
2023-02-05T21:00:27.637Z,5.23
2023-02-05T21:03:16.179Z,5.20
2023-02-05T21:06:05.314Z,5.12
2023-02-05T21:08:55.834Z,4.75
2023-02-05T21:11:44.329Z,4.86
2023-02-05T21:14:32.927Z,4.74
2023-02-05T21:17:21.518Z,4.63
2023-02-05T21:20:10.660Z,4.58
2023-02-05T21:22:59.724Z,4.44
2023-02-05T21:25:49.630Z,4.42
2023-02-05T21:28:38.209Z,4.43
2023-02-05T21:31:33.624Z,4.32
2023-02-05T21:34:23.405Z,4.38
2023-02-05T21:37:11.972Z,4.42
2023-02-05T21:40:08.804Z,4.35
2023-02-05T21:42:59.366Z,4.05
2023-02-05T21:45:47.928Z,3.92
2023-02-05T21:48:36.830Z,4.01
2023-02-05T21:51:27.392Z,4.17
2023-02-05T21:54:16.152Z,4.12
2023-02-05T21:57:04.867Z,4.11
2023-02-05T21:59:54.699Z,4.05
2023-02-05T22:02:43.263Z,3.90
2023-02-05T22:05:31.799Z,3.80
2023-02-05T22:08:20.320Z,3.80
2023-02-05T22:11:10.869Z,3.75
2023-02-05T22:13:59.470Z,3.80
2023-02-05T22:16:49.386Z,3.72
2023-02-05T22:19:37.849Z,3.81
2023-02-05T22:22:26.314Z,3.81
2023-02-05T22:25:14.789Z,3.81
2023-02-05T22:28:03.385Z,3.69
2023-02-05T22:30:51.964Z,3.56
2023-02-05T22:33:43.393Z,3.70
2023-02-05T22:36:33.208Z,3.60
2023-02-05T22:39:21.677Z,3.65
2023-02-05T22:42:19.098Z,3.41
2023-02-05T22:45:08.256Z,3.48
2023-02-05T22:47:56.742Z,3.46
2023-02-05T22:50:46.976Z,3.31
2023-02-05T22:53:35.867Z,3.33
2023-02-05T22:56:24.925Z,3.47
2023-02-05T22:59:13.861Z,3.26
2023-02-05T23:02:02.323Z,3.26
2023-02-05T23:04:50.865Z,3.31
2023-02-05T23:07:40.738Z,3.31
2023-02-05T23:10:29.738Z,2.72
2023-02-05T23:13:18.164Z,3.12
2023-02-05T23:16:08.643Z,2.96
2023-02-05T23:18:58.276Z,3.40
2023-02-05T23:21:46.955Z,3.33
2023-02-05T23:24:38.020Z,3.34
2023-02-05T23:27:27.342Z,3.38
2023-02-05T23:30:16.752Z,3.41
2023-02-05T23:33:05.198Z,3.51
2023-02-05T23:35:53.807Z,3.57
2023-02-05T23:38:42.320Z,3.55
2023-02-05T23:41:39.549Z,3.49
2023-02-05T23:44:28.128Z,3.50
2023-02-05T23:47:16.594Z,3.34
2023-02-05T23:50:05.677Z,3.34
2023-02-05T23:52:54.148Z,3.30
2023-02-05T23:55:44.037Z,3.35
2023-02-05T23:58:33.862Z,3.35
